createdAt,value
2023-03-16T00:01:17.094Z,7638.21582
2023-03-16T00:16:19.370Z,2004.547
2023-03-16T00:31:21.681Z,1391.93884
2023-03-16T00:46:24.069Z,997.42688
2023-03-16T01:01:26.289Z,774.48407
2023-03-16T01:16:28.934Z,600.97638
2023-03-16T01:31:31.276Z,410.9903
2023-03-16T01:46:33.675Z,176.41565
2023-03-16T02:01:36.262Z,35.86472
2023-03-16T02:16:38.544Z,1.93863
2023-03-16T02:31:40.872Z,0
2023-03-16T02:46:43.130Z,0
2023-03-16T03:01:45.460Z,0
2023-03-16T03:16:47.798Z,0
2023-03-16T03:46:51.381Z,0
2023-03-16T04:01:53.786Z,0
2023-03-16T04:16:56.172Z,0
2023-03-16T04:31:58.447Z,0
2023-03-16T04:47:00.712Z,0
2023-03-16T05:02:02.908Z,0
2023-03-16T05:17:05.157Z,0
2023-03-16T05:32:07.399Z,0
2023-03-16T05:47:10.092Z,0
2023-03-16T06:02:12.339Z,0
2023-03-16T06:17:14.616Z,0
2023-03-16T06:32:16.977Z,0
2023-03-16T06:47:19.198Z,0
2023-03-16T07:02:21.503Z,0
2023-03-16T07:17:23.829Z,0
2023-03-16T07:32:26.163Z,0
2023-03-16T07:47:28.476Z,0
2023-03-16T08:02:30.762Z,0
2023-03-16T08:17:32.981Z,0
2023-03-16T08:32:35.330Z,0
2023-03-16T08:47:37.628Z,0
2023-03-16T09:02:39.853Z,0
2023-03-16T09:17:42.122Z,0
2023-03-16T09:32:44.390Z,0
2023-03-16T09:47:46.812Z,0
2023-03-16T10:02:49.157Z,0
2023-03-16T10:17:51.442Z,0
2023-03-16T10:32:53.863Z,0
2023-03-16T10:47:56.132Z,0
2023-03-16T11:02:58.393Z,0
2023-03-16T11:18:00.602Z,0
2023-03-16T11:33:02.829Z,0
2023-03-16T11:48:05.079Z,0
2023-03-16T12:03:07.507Z,0
2023-03-16T12:18:09.772Z,0
2023-03-16T12:33:12.027Z,0
2023-03-16T12:48:14.291Z,0
2023-03-16T13:03:16.559Z,0
2023-03-16T13:18:18.832Z,0
2023-03-16T13:33:21.075Z,0.96932
2023-03-16T13:48:23.400Z,12.60112
2023-03-16T14:03:25.629Z,90.14645
2023-03-16T14:18:27.904Z,319.87451
2023-03-16T14:33:30.272Z,617.45477
2023-03-16T14:48:32.538Z,1017.78253
2023-03-16T15:03:34.803Z,18596.3418
2023-03-16T15:18:37.074Z,4138.01318
2023-03-16T15:33:39.330Z,5855.64209
2023-03-16T15:48:41.562Z,10622.74219
2023-03-16T16:03:43.868Z,10321.28418
2023-03-16T16:18:46.194Z,29587.42383
2023-03-16T16:33:48.452Z,33893.12891
2023-03-16T16:48:50.733Z,29925.71484
2023-03-16T17:03:53.070Z,12212.4209
2023-03-16T17:18:55.301Z,10235.01562
2023-03-16T17:33:57.516Z,9118.3623
2023-03-16T17:48:59.741Z,8617.22559
2023-03-16T18:04:02.038Z,8776.19336
2023-03-16T18:19:04.570Z,7976.50732
2023-03-16T18:34:06.807Z,7914.47119
2023-03-16T18:49:09.076Z,8496.06152
2023-03-16T19:04:11.296Z,8250.82422
2023-03-16T19:19:13.611Z,8061.80713
2023-03-16T19:34:15.885Z,8128.68994
2023-03-16T19:49:18.107Z,7942.58105
2023-03-16T20:04:20.443Z,7503.48096
2023-03-16T20:19:22.877Z,6797.81836
2023-03-16T20:34:25.130Z,5975.8374
2023-03-16T20:49:27.376Z,6679.56152
2023-03-16T21:04:29.625Z,7361.96045
2023-03-16T21:19:31.872Z,8278.93457
2023-03-16T21:34:34.448Z,8857.61621
2023-03-16T21:49:36.699Z,7993.95508
2023-03-16T22:04:39.093Z,8355.50977
2023-03-16T22:19:41.299Z,9656.33301
2023-03-16T22:34:43.617Z,8769.4082
2023-03-16T22:49:45.812Z,7859.22021
2023-03-16T23:04:48.147Z,9517.7207
2023-03-16T23:19:50.453Z,7744.84082
2023-03-16T23:34:52.668Z,6854.03857
2023-03-16T23:49:55.127Z,6113.48047
